sensor_id;sensor_type;location;lat;lon;timestamp;P1;durP1;ratioP1;P2;durP2;ratioP2
32152;SDS011;18656;50.580;11.392;2022-10-16T00:02:13;0.22;;;0.22;;
32152;SDS011;18656;50.580;11.392;2022-10-16T00:04:40;0.40;;;0.25;;
32152;SDS011;18656;50.580;11.392;2022-10-16T00:07:08;3.75;;;0.30;;
32152;SDS011;18656;50.580;11.392;2022-10-16T00:09:35;0.63;;;0.20;;
32152;SDS011;18656;50.580;11.392;2022-10-16T00:12:02;4.30;;;0.32;;
32152;SDS011;18656;50.580;11.392;2022-10-16T00:14:30;0.98;;;0.32;;
32152;SDS011;18656;50.580;11.392;2022-10-16T00:16:57;0.28;;;0.22;;
32152;SDS011;18656;50.580;11.392;2022-10-16T00:19:24;0.57;;;0.15;;
32152;SDS011;18656;50.580;11.392;2022-10-16T00:21:51;0.80;;;0.20;;
32152;SDS011;18656;50.580;11.392;2022-10-16T00:24:19;2.58;;;0.35;;
32152;SDS011;18656;50.580;11.392;2022-10-16T00:26:46;1.05;;;0.30;;
32152;SDS011;18656;50.580;11.392;2022-10-16T00:29:16;2.05;;;0.38;;
32152;SDS011;18656;50.580;11.392;2022-10-16T00:31:43;3.20;;;0.38;;
32152;SDS011;18656;50.580;11.392;2022-10-16T00:34:10;0.75;;;0.15;;
32152;SDS011;18656;50.580;11.392;2022-10-16T00:36:38;1.40;;;0.20;;
32152;SDS011;18656;50.580;11.392;2022-10-16T00:39:05;0.20;;;0.20;;
32152;SDS011;18656;50.580;11.392;2022-10-16T00:41:32;0.55;;;0.30;;
32152;SDS011;18656;50.580;11.392;2022-10-16T00:44:00;0.20;;;0.20;;
32152;SDS011;18656;50.580;11.392;2022-10-16T00:49:08;0.40;;;0.40;;
32152;SDS011;18656;50.580;11.392;2022-10-16T00:51:37;1.95;;;0.30;;
32152;SDS011;18656;50.580;11.392;2022-10-16T00:54:09;0.40;;;0.30;;
32152;SDS011;18656;50.580;11.392;2022-10-16T00:56:37;0.30;;;0.30;;
32152;SDS011;18656;50.580;11.392;2022-10-16T00:59:06;2.38;;;0.30;;
32152;SDS011;18656;50.580;11.392;2022-10-16T01:01:36;0.85;;;0.38;;
32152;SDS011;18656;50.580;11.392;2022-10-16T01:04:04;3.03;;;0.30;;
32152;SDS011;18656;50.580;11.392;2022-10-16T01:06:36;0.40;;;0.40;;
32152;SDS011;18656;50.580;11.392;2022-10-16T01:09:11;1.77;;;0.43;;
32152;SDS011;18656;50.580;11.392;2022-10-16T01:16:55;0.47;;;0.47;;
32152;SDS011;18656;50.580;11.392;2022-10-16T01:19:26;2.00;;;0.40;;
32152;SDS011;18656;50.580;11.392;2022-10-16T01:27:02;0.77;;;0.40;;
32152;SDS011;18656;50.580;11.392;2022-10-16T01:29:34;2.83;;;0.50;;
32152;SDS011;18656;50.580;11.392;2022-10-16T01:32:26;2.22;;;0.40;;
32152;SDS011;18656;50.580;11.392;2022-10-16T01:34:55;1.60;;;0.50;;
32152;SDS011;18656;50.580;11.392;2022-10-16T01:37:46;1.08;;;0.60;;
32152;SDS011;18656;50.580;11.392;2022-10-16T01:40:16;0.30;;;0.15;;
32152;SDS011;18656;50.580;11.392;2022-10-16T01:42:48;0.93;;;0.28;;
32152;SDS011;18656;50.580;11.392;2022-10-16T01:45:17;2.72;;;0.40;;
32152;SDS011;18656;50.580;11.392;2022-10-16T01:47:46;0.30;;;0.30;;
32152;SDS011;18656;50.580;11.392;2022-10-16T01:50:14;0.82;;;0.40;;
32152;SDS011;18656;50.580;11.392;2022-10-16T01:52:43;0.60;;;0.32;;
32152;SDS011;18656;50.580;11.392;2022-10-16T01:55:12;0.80;;;0.38;;
32152;SDS011;18656;50.580;11.392;2022-10-16T01:57:42;4.13;;;0.40;;
32152;SDS011;18656;50.580;11.392;2022-10-16T02:00:11;0.63;;;0.55;;
32152;SDS011;18656;50.580;11.392;2022-10-16T02:02:40;2.20;;;0.40;;
32152;SDS011;18656;50.580;11.392;2022-10-16T02:05:20;0.30;;;0.30;;
32152;SDS011;18656;50.580;11.392;2022-10-16T02:07:48;3.38;;;0.60;;
32152;SDS011;18656;50.580;11.392;2022-10-16T02:10:16;1.85;;;0.30;;
32152;SDS011;18656;50.580;11.392;2022-10-16T02:12:49;0.40;;;0.40;;
32152;SDS011;18656;50.580;11.392;2022-10-16T02:15:17;1.15;;;0.25;;
32152;SDS011;18656;50.580;11.392;2022-10-16T02:17:45;0.93;;;0.50;;
32152;SDS011;18656;50.580;11.392;2022-10-16T02:20:12;2.80;;;0.35;;
32152;SDS011;18656;50.580;11.392;2022-10-16T02:22:41;0.30;;;0.30;;
32152;SDS011;18656;50.580;11.392;2022-10-16T02:25:10;0.40;;;0.35;;
32152;SDS011;18656;50.580;11.392;2022-10-16T02:28:23;1.77;;;0.55;;
32152;SDS011;18656;50.580;11.392;2022-10-16T02:32:52;3.70;;;0.40;;
32152;SDS011;18656;50.580;11.392;2022-10-16T02:35:21;4.43;;;0.50;;
32152;SDS011;18656;50.580;11.392;2022-10-16T02:37:49;5.85;;;1.05;;
32152;SDS011;18656;50.580;11.392;2022-10-16T02:40:17;1.75;;;0.50;;
32152;SDS011;18656;50.580;11.392;2022-10-16T02:42:50;0.98;;;0.52;;
32152;SDS011;18656;50.580;11.392;2022-10-16T02:45:18;9.80;;;1.48;;
32152;SDS011;18656;50.580;11.392;2022-10-16T02:47:46;2.47;;;0.50;;
32152;SDS011;18656;50.580;11.392;2022-10-16T02:50:13;6.40;;;0.80;;
32152;SDS011;18656;50.580;11.392;2022-10-16T02:52:40;2.40;;;0.68;;
32152;SDS011;18656;50.580;11.392;2022-10-16T02:55:08;1.35;;;0.45;;
32152;SDS011;18656;50.580;11.392;2022-10-16T02:57:35;5.88;;;0.73;;
32152;SDS011;18656;50.580;11.392;2022-10-16T03:00:04;4.10;;;0.80;;
32152;SDS011;18656;50.580;11.392;2022-10-16T03:02:31;5.55;;;0.82;;
32152;SDS011;18656;50.580;11.392;2022-10-16T03:04:58;5.80;;;1.30;;
32152;SDS011;18656;50.580;11.392;2022-10-16T03:07:25;0.98;;;0.65;;
32152;SDS011;18656;50.580;11.392;2022-10-16T03:09:53;1.77;;;0.60;;
32152;SDS011;18656;50.580;11.392;2022-10-16T03:12:21;0.50;;;0.50;;
32152;SDS011;18656;50.580;11.392;2022-10-16T03:14:48;4.90;;;0.60;;
32152;SDS011;18656;50.580;11.392;2022-10-16T03:17:15;0.82;;;0.73;;
32152;SDS011;18656;50.580;11.392;2022-10-16T03:19:43;2.88;;;0.60;;
32152;SDS011;18656;50.580;11.392;2022-10-16T03:22:10;1.13;;;0.60;;
32152;SDS011;18656;50.580;11.392;2022-10-16T03:24:37;1.70;;;0.73;;
32152;SDS011;18656;50.580;11.392;2022-10-16T03:27:04;4.57;;;0.90;;
32152;SDS011;18656;50.580;11.392;2022-10-16T03:29:32;2.97;;;0.77;;
32152;SDS011;18656;50.580;11.392;2022-10-16T03:31:59;0.98;;;0.85;;
32152;SDS011;18656;50.580;11.392;2022-10-16T03:34:26;0.70;;;0.70;;
32152;SDS011;18656;50.580;11.392;2022-10-16T03:36:54;1.00;;;0.90;;
32152;SDS011;18656;50.580;11.392;2022-10-16T03:39:21;2.50;;;0.75;;
32152;SDS011;18656;50.580;11.392;2022-10-16T03:41:48;0.63;;;0.63;;
32152;SDS011;18656;50.580;11.392;2022-10-16T03:44:15;1.25;;;0.80;;
32152;SDS011;18656;50.580;11.392;2022-10-16T03:46:43;0.93;;;0.55;;
32152;SDS011;18656;50.580;11.392;2022-10-16T03:49:10;1.00;;;1.00;;
32152;SDS011;18656;50.580;11.392;2022-10-16T03:51:37;2.00;;;1.17;;
32152;SDS011;18656;50.580;11.392;2022-10-16T03:54:04;0.90;;;0.90;;
32152;SDS011;18656;50.580;11.392;2022-10-16T03:56:31;1.00;;;1.00;;
32152;SDS011;18656;50.580;11.392;2022-10-16T03:58:59;2.35;;;1.20;;
32152;SDS011;18656;50.580;11.392;2022-10-16T04:01:26;3.75;;;1.20;;
32152;SDS011;18656;50.580;11.392;2022-10-16T04:03:53;4.63;;;1.30;;
32152;SDS011;18656;50.580;11.392;2022-10-16T04:06:20;2.45;;;1.33;;
32152;SDS011;18656;50.580;11.392;2022-10-16T04:08:47;1.75;;;0.80;;
32152;SDS011;18656;50.580;11.392;2022-10-16T04:11:15;2.85;;;1.25;;
32152;SDS011;18656;50.580;11.392;2022-10-16T04:13:42;3.03;;;0.90;;
32152;SDS011;18656;50.580;11.392;2022-10-16T04:16:09;1.08;;;0.93;;
32152;SDS011;18656;50.580;11.392;2022-10-16T04:18:37;4.20;;;1.10;;
32152;SDS011;18656;50.580;11.392;2022-10-16T04:21:04;3.17;;;2.92;;
32152;SDS011;18656;50.580;11.392;2022-10-16T04:23:32;2.83;;;0.80;;
32152;SDS011;18656;50.580;11.392;2022-10-16T04:25:59;4.10;;;1.10;;
32152;SDS011;18656;50.580;11.392;2022-10-16T04:28:26;0.95;;;0.93;;
32152;SDS011;18656;50.580;11.392;2022-10-16T04:30:53;1.80;;;1.00;;
32152;SDS011;18656;50.580;11.392;2022-10-16T04:33:20;1.25;;;0.90;;
32152;SDS011;18656;50.580;11.392;2022-10-16T04:35:48;0.82;;;0.80;;
32152;SDS011;18656;50.580;11.392;2022-10-16T04:38:15;1.95;;;0.40;;
32152;SDS011;18656;50.580;11.392;2022-10-16T04:40:42;0.30;;;0.30;;
32152;SDS011;18656;50.580;11.392;2022-10-16T04:43:09;1.95;;;0.40;;
32152;SDS011;18656;50.580;11.392;2022-10-16T04:45:36;0.40;;;0.40;;
32152;SDS011;18656;50.580;11.392;2022-10-16T04:48:04;0.40;;;0.40;;
32152;SDS011;18656;50.580;11.392;2022-10-16T04:50:31;0.93;;;0.40;;
32152;SDS011;18656;50.580;11.392;2022-10-16T04:52:58;0.30;;;0.30;;
32152;SDS011;18656;50.580;11.392;2022-10-16T04:55:25;0.73;;;0.35;;
32152;SDS011;18656;50.580;11.392;2022-10-16T04:57:53;1.52;;;0.60;;
32152;SDS011;18656;50.580;11.392;2022-10-16T05:00:20;1.08;;;0.60;;
32152;SDS011;18656;50.580;11.392;2022-10-16T05:02:49;28.88;;;2.90;;
32152;SDS011;18656;50.580;11.392;2022-10-16T05:05:17;7.57;;;1.33;;
32152;SDS011;18656;50.580;11.392;2022-10-16T05:07:47;4.68;;;0.70;;
32152;SDS011;18656;50.580;11.392;2022-10-16T05:10:15;26.38;;;2.78;;
32152;SDS011;18656;50.580;11.392;2022-10-16T05:12:43;3.20;;;0.90;;
32152;SDS011;18656;50.580;11.392;2022-10-16T05:15:10;2.05;;;0.70;;
32152;SDS011;18656;50.580;11.392;2022-10-16T05:17:37;0.45;;;0.45;;
32152;SDS011;18656;50.580;11.392;2022-10-16T05:20:09;1.63;;;0.40;;
32152;SDS011;18656;50.580;11.392;2022-10-16T05:22:37;1.33;;;0.50;;
32152;SDS011;18656;50.580;11.392;2022-10-16T05:25:04;0.75;;;0.32;;
32152;SDS011;18656;50.580;11.392;2022-10-16T05:27:31;4.25;;;0.70;;
32152;SDS011;18656;50.580;11.392;2022-10-16T05:29:58;1.17;;;0.50;;
32152;SDS011;18656;50.580;11.392;2022-10-16T05:32:25;0.73;;;0.57;;
32152;SDS011;18656;50.580;11.392;2022-10-16T05:34:53;2.78;;;0.73;;
32152;SDS011;18656;50.580;11.392;2022-10-16T05:37:20;6.82;;;1.42;;
32152;SDS011;18656;50.580;11.392;2022-10-16T05:39:47;4.30;;;0.90;;
32152;SDS011;18656;50.580;11.392;2022-10-16T05:42:14;2.90;;;0.68;;
32152;SDS011;18656;50.580;11.392;2022-10-16T05:44:41;2.15;;;0.82;;
32152;SDS011;18656;50.580;11.392;2022-10-16T05:47:08;5.22;;;0.80;;
32152;SDS011;18656;50.580;11.392;2022-10-16T05:49:37;2.55;;;1.10;;
32152;SDS011;18656;50.580;11.392;2022-10-16T05:52:06;2.95;;;0.80;;
32152;SDS011;18656;50.580;11.392;2022-10-16T05:54:33;0.63;;;0.60;;
32152;SDS011;18656;50.580;11.392;2022-10-16T05:57:01;2.40;;;0.80;;
32152;SDS011;18656;50.580;11.392;2022-10-16T05:59:28;1.63;;;0.70;;
32152;SDS011;18656;50.580;11.392;2022-10-16T06:01:55;4.70;;;0.90;;
32152;SDS011;18656;50.580;11.392;2022-10-16T06:04:22;1.75;;;1.08;;
32152;SDS011;18656;50.580;11.392;2022-10-16T06:06:50;0.70;;;0.60;;
32152;SDS011;18656;50.580;11.392;2022-10-16T06:09:17;1.65;;;0.70;;
32152;SDS011;18656;50.580;11.392;2022-10-16T06:11:44;1.00;;;0.80;;
32152;SDS011;18656;50.580;11.392;2022-10-16T06:14:11;2.53;;;0.93;;
32152;SDS011;18656;50.580;11.392;2022-10-16T06:16:38;2.42;;;0.90;;
32152;SDS011;18656;50.580;11.392;2022-10-16T06:19:05;1.23;;;0.70;;
32152;SDS011;18656;50.580;11.392;2022-10-16T06:21:34;1.98;;;0.70;;
32152;SDS011;18656;50.580;11.392;2022-10-16T06:24:01;7.68;;;1.00;;
32152;SDS011;18656;50.580;11.392;2022-10-16T06:26:29;1.80;;;1.00;;
32152;SDS011;18656;50.580;11.392;2022-10-16T06:28:57;1.65;;;1.40;;
32152;SDS011;18656;50.580;11.392;2022-10-16T06:31:25;5.38;;;2.08;;
32152;SDS011;18656;50.580;11.392;2022-10-16T06:33:56;3.95;;;1.83;;
32152;SDS011;18656;50.580;11.392;2022-10-16T06:36:24;3.85;;;2.88;;
32152;SDS011;18656;50.580;11.392;2022-10-16T06:38:51;3.40;;;3.10;;
32152;SDS011;18656;50.580;11.392;2022-10-16T06:41:20;5.22;;;3.28;;
32152;SDS011;18656;50.580;11.392;2022-10-16T06:43:47;3.40;;;3.10;;
32152;SDS011;18656;50.580;11.392;2022-10-16T06:46:16;3.03;;;2.08;;
32152;SDS011;18656;50.580;11.392;2022-10-16T06:48:44;2.95;;;1.48;;
32152;SDS011;18656;50.580;11.392;2022-10-16T06:51:12;1.45;;;1.25;;
32152;SDS011;18656;50.580;11.392;2022-10-16T06:53:40;3.28;;;1.63;;
32152;SDS011;18656;50.580;11.392;2022-10-16T06:56:28;8.55;;;1.52;;
32152;SDS011;18656;50.580;11.392;2022-10-16T06:58:57;7.97;;;1.80;;
32152;SDS011;18656;50.580;11.392;2022-10-16T07:01:25;8.27;;;1.98;;
32152;SDS011;18656;50.580;11.392;2022-10-16T07:03:52;13.80;;;2.40;;
32152;SDS011;18656;50.580;11.392;2022-10-16T07:06:21;7.30;;;1.92;;
32152;SDS011;18656;50.580;11.392;2022-10-16T07:08:48;6.30;;;2.17;;
32152;SDS011;18656;50.580;11.392;2022-10-16T07:11:20;5.45;;;2.30;;
32152;SDS011;18656;50.580;11.392;2022-10-16T07:13:47;4.32;;;1.75;;
32152;SDS011;18656;50.580;11.392;2022-10-16T07:18:50;6.90;;;2.15;;
32152;SDS011;18656;50.580;11.392;2022-10-16T07:21:21;3.78;;;2.00;;
32152;SDS011;18656;50.580;11.392;2022-10-16T07:23:56;5.18;;;2.00;;
32152;SDS011;18656;50.580;11.392;2022-10-16T07:26:23;2.55;;;2.35;;
32152;SDS011;18656;50.580;11.392;2022-10-16T07:28:51;6.22;;;5.38;;
32152;SDS011;18656;50.580;11.392;2022-10-16T07:31:25;3.10;;;2.85;;
32152;SDS011;18656;50.580;11.392;2022-10-16T07:33:52;5.18;;;3.40;;
32152;SDS011;18656;50.580;11.392;2022-10-16T07:36:20;4.25;;;3.85;;
32152;SDS011;18656;50.580;11.392;2022-10-16T07:38:47;16.98;;;15.23;;
32152;SDS011;18656;50.580;11.392;2022-10-16T07:41:22;9.30;;;8.60;;
32152;SDS011;18656;50.580;11.392;2022-10-16T07:43:50;1.80;;;1.70;;
32152;SDS011;18656;50.580;11.392;2022-10-16T07:46:19;1.38;;;1.27;;
32152;SDS011;18656;50.580;11.392;2022-10-16T07:48:46;6.65;;;4.07;;
32152;SDS011;18656;50.580;11.392;2022-10-16T07:51:15;4.57;;;4.10;;
32152;SDS011;18656;50.580;11.392;2022-10-16T07:53:42;1.20;;;1.10;;
32152;SDS011;18656;50.580;11.392;2022-10-16T07:56:10;1.67;;;0.90;;
32152;SDS011;18656;50.580;11.392;2022-10-16T07:58:38;0.77;;;0.77;;
32152;SDS011;18656;50.580;11.392;2022-10-16T08:01:06;1.65;;;0.60;;
32152;SDS011;18656;50.580;11.392;2022-10-16T08:03:33;0.50;;;0.50;;
32152;SDS011;18656;50.580;11.392;2022-10-16T08:06:01;0.80;;;0.60;;
32152;SDS011;18656;50.580;11.392;2022-10-16T08:08:28;1.65;;;0.85;;
32152;SDS011;18656;50.580;11.392;2022-10-16T08:10:56;2.85;;;1.48;;
32152;SDS011;18656;50.580;11.392;2022-10-16T08:13:23;3.70;;;0.80;;
32152;SDS011;18656;50.580;11.392;2022-10-16T08:15:50;1.67;;;0.68;;
32152;SDS011;18656;50.580;11.392;2022-10-16T08:18:17;0.68;;;0.68;;
32152;SDS011;18656;50.580;11.392;2022-10-16T08:20:45;1.58;;;0.65;;
32152;SDS011;18656;50.580;11.392;2022-10-16T08:23:12;3.20;;;0.70;;
32152;SDS011;18656;50.580;11.392;2022-10-16T08:25:40;0.88;;;0.80;;
32152;SDS011;18656;50.580;11.392;2022-10-16T08:28:08;2.38;;;0.63;;
32152;SDS011;18656;50.580;11.392;2022-10-16T08:30:38;6.07;;;1.00;;
32152;SDS011;18656;50.580;11.392;2022-10-16T08:33:06;1.55;;;0.85;;
32152;SDS011;18656;50.580;11.392;2022-10-16T08:35:34;0.98;;;0.98;;
32152;SDS011;18656;50.580;11.392;2022-10-16T08:38:05;0.80;;;0.80;;
32152;SDS011;18656;50.580;11.392;2022-10-16T08:40:33;0.60;;;0.60;;
32152;SDS011;18656;50.580;11.392;2022-10-16T08:45:59;1.00;;;1.00;;
32152;SDS011;18656;50.580;11.392;2022-10-16T08:51:07;1.70;;;0.70;;
32152;SDS011;18656;50.580;11.392;2022-10-16T08:53:40;0.75;;;0.60;;
32152;SDS011;18656;50.580;11.392;2022-10-16T08:56:10;2.17;;;0.95;;
32152;SDS011;18656;50.580;11.392;2022-10-16T08:58:37;0.50;;;0.50;;
32152;SDS011;18656;50.580;11.392;2022-10-16T09:01:09;1.60;;;0.73;;
32152;SDS011;18656;50.580;11.392;2022-10-16T09:11:19;2.53;;;0.70;;
32152;SDS011;18656;50.580;11.392;2022-10-16T09:13:57;1.38;;;0.70;;
32152;SDS011;18656;50.580;11.392;2022-10-16T09:16:32;2.08;;;0.80;;
32152;SDS011;18656;50.580;11.392;2022-10-16T09:19:02;0.73;;;0.70;;
32152;SDS011;18656;50.580;11.392;2022-10-16T09:21:42;0.38;;;0.38;;
32152;SDS011;18656;50.580;11.392;2022-10-16T09:26:37;2.15;;;0.57;;
32152;SDS011;18656;50.580;11.392;2022-10-16T09:29:04;1.48;;;0.60;;
32152;SDS011;18656;50.580;11.392;2022-10-16T09:31:32;0.68;;;0.50;;
32152;SDS011;18656;50.580;11.392;2022-10-16T09:34:03;0.95;;;0.50;;
32152;SDS011;18656;50.580;11.392;2022-10-16T09:36:35;0.65;;;0.60;;
32152;SDS011;18656;50.580;11.392;2022-10-16T09:39:08;1.42;;;0.70;;
32152;SDS011;18656;50.580;11.392;2022-10-16T09:41:35;2.53;;;0.45;;
32152;SDS011;18656;50.580;11.392;2022-10-16T09:44:04;0.50;;;0.40;;
32152;SDS011;18656;50.580;11.392;2022-10-16T09:46:40;1.98;;;0.60;;
32152;SDS011;18656;50.580;11.392;2022-10-16T09:49:21;0.82;;;0.40;;
32152;SDS011;18656;50.580;11.392;2022-10-16T09:51:49;1.08;;;0.70;;
32152;SDS011;18656;50.580;11.392;2022-10-16T09:54:18;0.80;;;0.50;;
32152;SDS011;18656;50.580;11.392;2022-10-16T09:56:46;1.25;;;0.35;;
32152;SDS011;18656;50.580;11.392;2022-10-16T09:59:18;1.55;;;0.47;;
32152;SDS011;18656;50.580;11.392;2022-10-16T10:01:46;2.47;;;0.50;;
32152;SDS011;18656;50.580;11.392;2022-10-16T10:04:14;3.75;;;0.70;;
32152;SDS011;18656;50.580;11.392;2022-10-16T10:06:43;0.63;;;0.30;;
32152;SDS011;18656;50.580;11.392;2022-10-16T10:09:18;2.80;;;0.40;;
32152;SDS011;18656;50.580;11.392;2022-10-16T10:11:56;1.73;;;0.40;;
32152;SDS011;18656;50.580;11.392;2022-10-16T10:27:24;0.30;;;0.30;;
32152;SDS011;18656;50.580;11.392;2022-10-16T10:30:01;1.27;;;0.30;;
32152;SDS011;18656;50.580;11.392;2022-10-16T10:40:30;0.30;;;0.30;;
32152;SDS011;18656;50.580;11.392;2022-10-16T10:43:05;0.77;;;0.50;;
32152;SDS011;18656;50.580;11.392;2022-10-16T10:45:47;1.35;;;0.70;;
32152;SDS011;18656;50.580;11.392;2022-10-16T10:48:17;3.92;;;0.55;;
32152;SDS011;18656;50.580;11.392;2022-10-16T10:50:51;4.07;;;0.70;;
32152;SDS011;18656;50.580;11.392;2022-10-16T10:53:25;1.85;;;0.60;;
32152;SDS011;18656;50.580;11.392;2022-10-16T10:56:11;0.50;;;0.50;;
32152;SDS011;18656;50.580;11.392;2022-10-16T10:58:52;0.50;;;0.50;;
32152;SDS011;18656;50.580;11.392;2022-10-16T11:06:39;2.95;;;0.55;;
32152;SDS011;18656;50.580;11.392;2022-10-16T11:11:40;1.80;;;0.40;;
32152;SDS011;18656;50.580;11.392;2022-10-16T11:16:48;2.05;;;0.88;;
32152;SDS011;18656;50.580;11.392;2022-10-16T11:27:32;3.63;;;0.55;;
32152;SDS011;18656;50.580;11.392;2022-10-16T11:30:02;3.83;;;0.80;;
32152;SDS011;18656;50.580;11.392;2022-10-16T11:35:33;1.13;;;0.60;;
32152;SDS011;18656;50.580;11.392;2022-10-16T11:38:03;8.82;;;1.90;;
32152;SDS011;18656;50.580;11.392;2022-10-16T11:40:33;3.47;;;1.00;;
32152;SDS011;18656;50.580;11.392;2022-10-16T11:43:14;0.63;;;0.57;;
32152;SDS011;18656;50.580;11.392;2022-10-16T11:45:43;1.85;;;0.77;;
32152;SDS011;18656;50.580;11.392;2022-10-16T11:48:20;0.68;;;0.68;;
32152;SDS011;18656;50.580;11.392;2022-10-16T11:50:51;2.20;;;0.82;;
32152;SDS011;18656;50.580;11.392;2022-10-16T11:54:22;1.25;;;1.25;;
32152;SDS011;18656;50.580;11.392;2022-10-16T11:56:17;0.95;;;0.95;;
32152;SDS011;18656;50.580;11.392;2022-10-16T12:06:45;1.90;;;0.70;;
32152;SDS011;18656;50.580;11.392;2022-10-16T12:09:34;1.00;;;0.60;;
32152;SDS011;18656;50.580;11.392;2022-10-16T12:12:01;1.13;;;0.75;;
32152;SDS011;18656;50.580;11.392;2022-10-16T12:16:56;0.35;;;0.35;;
32152;SDS011;18656;50.580;11.392;2022-10-16T12:19:27;2.40;;;0.45;;
32152;SDS011;18656;50.580;11.392;2022-10-16T12:21:55;1.33;;;0.50;;
32152;SDS011;18656;50.580;11.392;2022-10-16T12:24:42;0.45;;;0.30;;
32152;SDS011;18656;50.580;11.392;2022-10-16T12:29:57;4.80;;;0.65;;
32152;SDS011;18656;50.580;11.392;2022-10-16T12:32:35;0.32;;;0.20;;
32152;SDS011;18656;50.580;11.392;2022-10-16T12:35:22;0.55;;;0.43;;
32152;SDS011;18656;50.580;11.392;2022-10-16T12:37:50;0.73;;;0.28;;
32152;SDS011;18656;50.580;11.392;2022-10-16T12:40:29;0.50;;;0.30;;
32152;SDS011;18656;50.580;11.392;2022-10-16T12:42:57;0.73;;;0.20;;
32152;SDS011;18656;50.580;11.392;2022-10-16T12:45:28;0.55;;;0.43;;
32152;SDS011;18656;50.580;11.392;2022-10-16T12:47:57;1.97;;;0.30;;
32152;SDS011;18656;50.580;11.392;2022-10-16T12:50:37;1.95;;;0.25;;
32152;SDS011;18656;50.580;11.392;2022-10-16T12:53:26;0.50;;;0.28;;
32152;SDS011;18656;50.580;11.392;2022-10-16T12:56:08;0.20;;;0.20;;
32152;SDS011;18656;50.580;11.392;2022-10-16T13:01:32;0.52;;;0.30;;
32152;SDS011;18656;50.580;11.392;2022-10-16T13:04:15;0.73;;;0.20;;
32152;SDS011;18656;50.580;11.392;2022-10-16T13:06:57;3.70;;;0.60;;
32152;SDS011;18656;50.580;11.392;2022-10-16T13:12:12;1.83;;;0.30;;
32152;SDS011;18656;50.580;11.392;2022-10-16T13:19:56;0.35;;;0.17;;
32152;SDS011;18656;50.580;11.392;2022-10-16T13:22:29;0.82;;;0.20;;
32152;SDS011;18656;50.580;11.392;2022-10-16T13:25:13;1.23;;;0.25;;
32152;SDS011;18656;50.580;11.392;2022-10-16T13:30:16;0.35;;;0.20;;
32152;SDS011;18656;50.580;11.392;2022-10-16T13:32:45;0.25;;;0.20;;
32152;SDS011;18656;50.580;11.392;2022-10-16T13:35:27;1.55;;;0.20;;
32152;SDS011;18656;50.580;11.392;2022-10-16T13:40:53;0.10;;;0.10;;
32152;SDS011;18656;50.580;11.392;2022-10-16T13:43:24;0.20;;;0.20;;
32152;SDS011;18656;50.580;11.392;2022-10-16T13:46:00;2.38;;;0.20;;
32152;SDS011;18656;50.580;11.392;2022-10-16T13:48:28;0.90;;;0.17;;
32152;SDS011;18656;50.580;11.392;2022-10-16T13:51:03;1.85;;;0.10;;
32152;SDS011;18656;50.580;11.392;2022-10-16T13:53:31;1.27;;;0.30;;
32152;SDS011;18656;50.580;11.392;2022-10-16T13:55:58;1.55;;;0.20;;
32152;SDS011;18656;50.580;11.392;2022-10-16T13:58:26;0.28;;;0.28;;
32152;SDS011;18656;50.580;11.392;2022-10-16T14:00:54;2.92;;;0.20;;
32152;SDS011;18656;50.580;11.392;2022-10-16T14:03:22;1.92;;;0.25;;
32152;SDS011;18656;50.580;11.392;2022-10-16T14:05:50;0.75;;;0.20;;
32152;SDS011;18656;50.580;11.392;2022-10-16T14:08:18;0.30;;;0.20;;
32152;SDS011;18656;50.580;11.392;2022-10-16T14:10:49;0.55;;;0.30;;
32152;SDS011;18656;50.580;11.392;2022-10-16T14:13:19;0.17;;;0.17;;
32152;SDS011;18656;50.580;11.392;2022-10-16T14:15:47;0.63;;;0.20;;
32152;SDS011;18656;50.580;11.392;2022-10-16T14:18:17;0.65;;;0.30;;
32152;SDS011;18656;50.580;11.392;2022-10-16T14:20:48;0.20;;;0.20;;
32152;SDS011;18656;50.580;11.392;2022-10-16T14:25:45;1.55;;;0.30;;
32152;SDS011;18656;50.580;11.392;2022-10-16T14:30:57;0.20;;;0.20;;
32152;SDS011;18656;50.580;11.392;2022-10-16T14:36:03;2.28;;;0.30;;
32152;SDS011;18656;50.580;11.392;2022-10-16T14:38:32;0.20;;;0.10;;
32152;SDS011;18656;50.580;11.392;2022-10-16T14:40:59;0.40;;;0.30;;
32152;SDS011;18656;50.580;11.392;2022-10-16T14:45:58;0.50;;;0.30;;
32152;SDS011;18656;50.580;11.392;2022-10-16T14:48:25;0.70;;;0.30;;
32152;SDS011;18656;50.580;11.392;2022-10-16T14:50:53;2.72;;;0.20;;
32152;SDS011;18656;50.580;11.392;2022-10-16T14:53:20;1.27;;;0.30;;
32152;SDS011;18656;50.580;11.392;2022-10-16T14:55:47;0.50;;;0.50;;
32152;SDS011;18656;50.580;11.392;2022-10-16T14:58:15;1.05;;;0.30;;
32152;SDS011;18656;50.580;11.392;2022-10-16T15:00:43;1.20;;;0.40;;
32152;SDS011;18656;50.580;11.392;2022-10-16T15:03:10;0.80;;;0.32;;
32152;SDS011;18656;50.580;11.392;2022-10-16T15:05:37;1.75;;;0.45;;
32152;SDS011;18656;50.580;11.392;2022-10-16T15:08:04;0.50;;;0.50;;
32152;SDS011;18656;50.580;11.392;2022-10-16T15:10:33;2.90;;;0.70;;
32152;SDS011;18656;50.580;11.392;2022-10-16T15:13:02;2.55;;;0.82;;
32152;SDS011;18656;50.580;11.392;2022-10-16T15:15:34;0.40;;;0.40;;
32152;SDS011;18656;50.580;11.392;2022-10-16T15:18:02;1.00;;;0.90;;
32152;SDS011;18656;50.580;11.392;2022-10-16T15:20:30;0.95;;;0.50;;
32152;SDS011;18656;50.580;11.392;2022-10-16T15:23:00;1.50;;;0.40;;
32152;SDS011;18656;50.580;11.392;2022-10-16T15:27:55;1.65;;;1.10;;
32152;SDS011;18656;50.580;11.392;2022-10-16T15:30:22;0.70;;;0.70;;
32152;SDS011;18656;50.580;11.392;2022-10-16T15:32:49;2.70;;;0.80;;
32152;SDS011;18656;50.580;11.392;2022-10-16T15:35:16;2.20;;;0.80;;
32152;SDS011;18656;50.580;11.392;2022-10-16T15:37:43;0.63;;;0.40;;
32152;SDS011;18656;50.580;11.392;2022-10-16T15:40:11;1.35;;;0.50;;
32152;SDS011;18656;50.580;11.392;2022-10-16T15:42:38;2.70;;;0.60;;
32152;SDS011;18656;50.580;11.392;2022-10-16T15:45:05;1.23;;;0.70;;
32152;SDS011;18656;50.580;11.392;2022-10-16T15:47:32;0.90;;;0.40;;
32152;SDS011;18656;50.580;11.392;2022-10-16T15:50:00;0.55;;;0.50;;
32152;SDS011;18656;50.580;11.392;2022-10-16T15:52:27;0.65;;;0.50;;
32152;SDS011;18656;50.580;11.392;2022-10-16T15:54:55;1.85;;;0.60;;
32152;SDS011;18656;50.580;11.392;2022-10-16T15:57:22;2.97;;;0.63;;
32152;SDS011;18656;50.580;11.392;2022-10-16T15:59:50;1.77;;;0.73;;
32152;SDS011;18656;50.580;11.392;2022-10-16T16:02:17;0.98;;;0.50;;
32152;SDS011;18656;50.580;11.392;2022-10-16T16:04:44;0.77;;;0.43;;
32152;SDS011;18656;50.580;11.392;2022-10-16T16:07:11;2.22;;;0.80;;
32152;SDS011;18656;50.580;11.392;2022-10-16T16:09:39;3.60;;;0.60;;
32152;SDS011;18656;50.580;11.392;2022-10-16T16:12:06;6.18;;;0.90;;
32152;SDS011;18656;50.580;11.392;2022-10-16T16:14:33;1.20;;;0.80;;
32152;SDS011;18656;50.580;11.392;2022-10-16T16:17:00;2.75;;;1.08;;
32152;SDS011;18656;50.580;11.392;2022-10-16T16:19:28;1.63;;;1.50;;
32152;SDS011;18656;50.580;11.392;2022-10-16T16:21:55;2.65;;;1.70;;
32152;SDS011;18656;50.580;11.392;2022-10-16T16:24:22;4.13;;;2.78;;
32152;SDS011;18656;50.580;11.392;2022-10-16T16:26:49;5.97;;;5.30;;
32152;SDS011;18656;50.580;11.392;2022-10-16T16:29:16;7.07;;;4.53;;
32152;SDS011;18656;50.580;11.392;2022-10-16T16:31:44;7.43;;;4.18;;
32152;SDS011;18656;50.580;11.392;2022-10-16T16:34:13;9.45;;;5.50;;
32152;SDS011;18656;50.580;11.392;2022-10-16T16:36:40;6.35;;;3.28;;
32152;SDS011;18656;50.580;11.392;2022-10-16T16:39:08;5.63;;;3.92;;
32152;SDS011;18656;50.580;11.392;2022-10-16T16:41:36;3.90;;;3.53;;
32152;SDS011;18656;50.580;11.392;2022-10-16T16:44:05;9.23;;;3.70;;
32152;SDS011;18656;50.580;11.392;2022-10-16T16:46:33;5.00;;;2.47;;